createdAt,value
2023-03-19T00:00:33.231Z,100574.91
2023-03-19T00:03:00.064Z,100583.25
2023-03-19T00:05:26.788Z,100550.72
2023-03-19T00:07:53.223Z,100572.22
2023-03-19T00:10:19.723Z,100574.50
2023-03-19T00:12:46.351Z,100576.19
2023-03-19T00:15:14.571Z,100568.22
2023-03-19T00:17:42.841Z,100584.53
2023-03-19T00:20:11.564Z,100571.53
2023-03-19T00:22:39.549Z,100574.88
2023-03-19T00:25:06.994Z,100572.81
2023-03-19T00:27:33.618Z,100568.41
2023-03-19T00:30:00.241Z,100580.09
2023-03-19T00:32:26.688Z,100573.38
2023-03-19T00:34:53.133Z,100575.88
2023-03-19T00:37:19.793Z,100567.53
2023-03-19T00:39:46.360Z,100569.44
2023-03-19T00:42:12.921Z,100561.72
2023-03-19T00:44:39.344Z,100564.81
2023-03-19T00:47:07.209Z,100570.03
2023-03-19T00:49:33.755Z,100565.00
2023-03-19T00:52:00.314Z,100568.47
2023-03-19T00:54:27.402Z,100574.91
2023-03-19T00:56:54.000Z,100572.00
2023-03-19T00:59:20.471Z,100571.78
2023-03-19T01:01:47.001Z,100570.53
2023-03-19T01:04:14.893Z,100571.38
2023-03-19T01:06:41.765Z,100569.44
2023-03-19T01:09:08.365Z,100565.88
2023-03-19T01:11:35.139Z,100572.94
2023-03-19T01:14:02.692Z,100571.63
2023-03-19T01:16:29.233Z,100571.44
2023-03-19T01:18:55.765Z,100573.25
2023-03-19T01:21:22.233Z,100572.38
2023-03-19T01:23:48.935Z,100568.94
2023-03-19T01:26:15.580Z,100571.00
2023-03-19T01:28:43.349Z,100577.06
2023-03-19T01:31:09.920Z,100575.25
2023-03-19T01:33:37.423Z,100570.00
2023-03-19T01:36:05.395Z,100567.84
2023-03-19T01:38:32.511Z,100570.78
2023-03-19T01:40:59.083Z,100570.00
2023-03-19T01:43:28.218Z,100569.81
2023-03-19T01:46:22.863Z,100570.91
2023-03-19T01:48:53.284Z,100564.47
2023-03-19T01:51:24.020Z,100561.25
2023-03-19T01:53:55.082Z,100555.59
2023-03-19T01:56:29.908Z,100567.56
2023-03-19T01:58:58.867Z,100564.28
2023-03-19T02:01:28.075Z,100565.53
2023-03-19T02:03:55.720Z,100560.22
2023-03-19T02:06:23.578Z,100563.63
2023-03-19T02:08:52.417Z,100558.44
2023-03-19T02:11:20.143Z,100559.06
2023-03-19T02:13:47.369Z,100571.44
2023-03-19T02:16:15.908Z,100561.22
2023-03-19T02:18:43.208Z,100571.28
2023-03-19T02:21:14.435Z,100566.72
2023-03-19T02:23:59.710Z,100565.44
2023-03-19T02:26:29.384Z,100564.59
2023-03-19T02:28:56.336Z,100566.63
2023-03-19T02:31:23.773Z,100566.63
2023-03-19T02:34:00.559Z,100556.84
2023-03-19T02:36:37.777Z,100566.41
2023-03-19T02:39:08.563Z,100561.22
2023-03-19T02:41:37.322Z,100565.25
2023-03-19T02:44:04.518Z,100561.50
2023-03-19T02:46:31.699Z,100554.16
2023-03-19T02:48:58.282Z,100565.25
2023-03-19T02:51:24.800Z,100567.56
2023-03-19T02:53:51.279Z,100571.28
2023-03-19T02:56:17.815Z,100567.13
2023-03-19T02:58:44.298Z,100561.69
2023-03-19T03:01:10.963Z,100561.13
2023-03-19T03:03:37.457Z,100561.41
2023-03-19T03:06:04.017Z,100563.97
2023-03-19T03:08:30.530Z,100559.00
2023-03-19T03:10:56.953Z,100561.50
2023-03-19T03:13:23.480Z,100567.94
2023-03-19T03:15:49.907Z,100568.97
2023-03-19T03:18:17.223Z,100570.06
2023-03-19T03:20:43.667Z,100561.53
2023-03-19T03:23:10.199Z,100569.66
2023-03-19T03:25:36.776Z,100575.75
2023-03-19T03:28:03.246Z,100570.53
2023-03-19T03:30:29.675Z,100573.25
2023-03-19T03:32:56.556Z,100572.38
2023-03-19T03:35:23.103Z,100576.53
2023-03-19T03:37:50.471Z,100583.22
2023-03-19T03:40:17.556Z,100582.59
2023-03-19T03:42:45.244Z,100585.31
2023-03-19T03:45:12.320Z,100577.78
2023-03-19T03:47:39.537Z,100577.84
2023-03-19T03:50:07.158Z,100578.47
2023-03-19T03:52:34.170Z,100589.78
2023-03-19T03:55:01.117Z,100598.28
2023-03-19T03:57:27.653Z,100609.97
2023-03-19T03:59:54.765Z,100598.69
2023-03-19T04:02:21.599Z,100589.13
2023-03-19T04:04:48.749Z,100599.94
2023-03-19T04:07:15.383Z,100595.31
2023-03-19T04:09:42.155Z,100584.44
2023-03-19T04:12:08.775Z,100597.88
2023-03-19T04:14:35.669Z,100597.69
2023-03-19T04:17:02.218Z,100600.75
2023-03-19T04:19:28.679Z,100599.91
2023-03-19T04:21:55.125Z,100599.91
2023-03-19T04:24:21.769Z,100603.47
2023-03-19T04:26:49.634Z,100604.28
2023-03-19T04:29:16.560Z,100599.44
2023-03-19T04:31:42.978Z,100607.63
2023-03-19T04:34:09.537Z,100615.56
2023-03-19T04:36:36.626Z,100609.31
2023-03-19T04:39:03.329Z,100607.63
2023-03-19T04:41:29.816Z,100606.38
2023-03-19T04:43:56.443Z,100609.66
2023-03-19T04:46:23.008Z,100602.75
2023-03-19T04:48:49.564Z,100606.75
2023-03-19T04:51:16.756Z,100613.81
2023-03-19T04:53:43.523Z,100615.88
2023-03-19T04:56:10.102Z,100614.69
2023-03-19T04:58:36.571Z,100617.38
2023-03-19T05:01:03.683Z,100624.28
2023-03-19T05:03:30.194Z,100625.03
2023-03-19T05:05:56.681Z,100627.50
2023-03-19T05:08:23.224Z,100635.69
2023-03-19T05:10:49.694Z,100632.59
2023-03-19T05:13:16.164Z,100620.53
2023-03-19T05:15:43.481Z,100629.94
2023-03-19T05:18:10.601Z,100625.81
2023-03-19T05:20:37.444Z,100631.03
2023-03-19T05:23:04.291Z,100632.25
2023-03-19T05:25:30.791Z,100652.63
2023-03-19T05:27:57.241Z,100638.91
2023-03-19T05:30:23.755Z,100633.94
2023-03-19T05:32:50.246Z,100639.38
2023-03-19T05:35:17.370Z,100634.97
2023-03-19T05:37:43.891Z,100642.88
2023-03-19T05:40:12.271Z,100648.44
2023-03-19T05:42:38.739Z,100652.59
2023-03-19T05:45:05.536Z,100653.88
2023-03-19T05:47:31.993Z,100666.31
2023-03-19T05:50:02.008Z,100662.19
2023-03-19T05:52:28.588Z,100665.56
2023-03-19T05:54:55.065Z,100660.56
2023-03-19T05:57:21.939Z,100675.41
2023-03-19T05:59:48.403Z,100668.16
2023-03-19T06:02:14.920Z,100669.28
2023-03-19T06:04:41.331Z,100660.50
2023-03-19T06:07:07.910Z,100657.31
2023-03-19T06:09:34.669Z,100664.88
2023-03-19T06:12:01.182Z,100680.13
2023-03-19T06:14:27.748Z,100674.91
2023-03-19T06:16:54.255Z,100679.06
2023-03-19T06:19:21.058Z,100678.69
2023-03-19T06:21:47.585Z,100669.97
2023-03-19T06:24:14.071Z,100673.78
2023-03-19T06:26:40.951Z,100678.41
2023-03-19T06:29:07.587Z,100682.13
2023-03-19T06:31:34.252Z,100684.84
2023-03-19T06:34:01.087Z,100683.03
2023-03-19T06:36:27.554Z,100680.97
2023-03-19T06:38:54.031Z,100684.06
2023-03-19T06:41:21.186Z,100688.06
2023-03-19T06:43:47.761Z,100688.91
2023-03-19T06:46:14.277Z,100699.56
2023-03-19T06:48:40.954Z,100700.59
2023-03-19T06:51:07.437Z,100704.31
2023-03-19T06:53:34.463Z,100703.94
2023-03-19T06:56:01.025Z,100703.09
2023-03-19T06:58:27.518Z,100701.66
2023-03-19T07:00:54.120Z,100701.22
2023-03-19T07:03:20.574Z,100709.16
2023-03-19T07:05:49.995Z,100717.09
2023-03-19T07:08:16.789Z,100723.16
2023-03-19T07:10:43.257Z,100726.09
2023-03-19T07:13:09.766Z,100725.28
2023-03-19T07:15:36.574Z,100721.06
2023-03-19T07:18:03.173Z,100722.13
2023-03-19T07:20:29.773Z,100730.09
2023-03-19T07:22:56.208Z,100733.94
2023-03-19T07:25:22.757Z,100721.97
2023-03-19T07:27:49.342Z,100728.97
2023-03-19T07:30:16.314Z,100739.59
2023-03-19T07:32:43.109Z,100740.00
2023-03-19T07:35:10.626Z,100747.53
2023-03-19T07:37:37.209Z,100740.69
2023-03-19T07:40:05.077Z,100745.13
2023-03-19T07:42:31.881Z,100744.53
2023-03-19T07:44:58.405Z,100739.75
2023-03-19T07:47:29.321Z,100740.59
2023-03-19T07:49:57.151Z,100741.03
2023-03-19T07:52:26.704Z,100740.97
2023-03-19T07:54:53.165Z,100745.59
2023-03-19T07:57:19.671Z,100735.13
2023-03-19T07:59:46.452Z,100747.00
2023-03-19T08:02:13.554Z,100748.88
2023-03-19T08:04:41.193Z,100753.47
2023-03-19T08:07:10.274Z,100745.59
2023-03-19T08:09:37.462Z,100745.59
2023-03-19T08:12:05.367Z,100757.31
2023-03-19T08:14:32.447Z,100756.50
2023-03-19T08:16:59.025Z,100756.56
2023-03-19T08:19:25.574Z,100756.19
2023-03-19T08:21:52.072Z,100751.91
2023-03-19T08:24:19.683Z,100752.75
2023-03-19T08:26:46.188Z,100744.28
2023-03-19T08:29:12.697Z,100752.09
2023-03-19T08:31:39.174Z,100760.06
2023-03-19T08:34:06.048Z,100759.94
2023-03-19T08:36:32.687Z,100762.47
2023-03-19T08:38:59.179Z,100763.75
2023-03-19T08:41:25.678Z,100766.50
2023-03-19T08:43:52.220Z,100768.78
2023-03-19T08:46:18.960Z,100762.31
2023-03-19T08:48:45.500Z,100770.25
2023-03-19T08:51:12.137Z,100771.53
2023-03-19T08:53:38.936Z,100770.91
2023-03-19T08:56:07.635Z,100767.13
2023-03-19T08:58:34.781Z,100768.81
2023-03-19T09:01:04.195Z,100772.78
2023-03-19T09:03:31.239Z,100775.53
2023-03-19T09:06:00.375Z,100778.03
2023-03-19T09:08:28.237Z,100770.09
2023-03-19T09:10:55.963Z,100772.19
2023-03-19T09:13:22.928Z,100773.41
2023-03-19T09:15:49.948Z,100785.34
2023-03-19T09:18:17.037Z,100785.16
2023-03-19T09:20:43.646Z,100783.88
2023-03-19T09:23:10.239Z,100789.75
2023-03-19T09:25:36.876Z,100788.50
2023-03-19T09:28:03.614Z,100791.84
2023-03-19T09:30:30.178Z,100787.88
2023-03-19T09:32:56.914Z,100784.31
2023-03-19T09:35:24.178Z,100788.69
2023-03-19T09:37:51.981Z,100798.97
2023-03-19T09:40:29.662Z,100795.00
2023-03-19T09:43:06.700Z,100800.63
2023-03-19T09:45:33.405Z,100801.47
2023-03-19T09:48:13.394Z,100804.00
2023-03-19T09:50:39.962Z,100803.34
2023-03-19T09:53:35.744Z,100806.50
2023-03-19T09:56:05.639Z,100806.09
2023-03-19T09:58:35.036Z,100800.66
2023-03-19T10:01:02.658Z,100806.06
2023-03-19T10:04:06.740Z,100807.31
2023-03-19T10:06:40.143Z,100790.59
2023-03-19T10:09:43.072Z,100808.19
2023-03-19T10:12:52.399Z,100809.69
2023-03-19T10:15:28.158Z,100804.84
2023-03-19T10:18:04.067Z,100818.88
2023-03-19T10:20:42.669Z,100813.41
2023-03-19T10:23:29.035Z,100820.94
2023-03-19T10:25:59.056Z,100821.56
2023-03-19T10:28:27.897Z,100816.16
2023-03-19T10:31:28.687Z,100819.25
2023-03-19T10:34:23.184Z,100818.22
2023-03-19T10:36:49.611Z,100821.13
2023-03-19T10:39:18.887Z,100815.50
2023-03-19T10:41:56.189Z,100814.25
2023-03-19T10:44:34.278Z,100811.13
2023-03-19T10:47:11.843Z,100812.78
2023-03-19T10:49:38.554Z,100822.44
2023-03-19T10:52:06.110Z,100822.00
2023-03-19T10:54:32.664Z,100819.91
2023-03-19T10:57:00.614Z,100817.97
2023-03-19T10:59:30.208Z,100817.94
2023-03-19T11:02:16.923Z,100821.03
2023-03-19T11:04:43.931Z,100825.66
2023-03-19T11:07:17.790Z,100813.47
2023-03-19T11:09:47.703Z,100814.78
2023-03-19T11:12:29.368Z,100821.97
2023-03-19T11:14:58.163Z,100823.69
2023-03-19T11:17:39.750Z,100824.50
2023-03-19T11:20:15.783Z,100835.00
2023-03-19T11:22:42.622Z,100826.81
2023-03-19T11:25:19.761Z,100823.69
2023-03-19T11:27:59.470Z,100826.00
2023-03-19T11:30:33.422Z,100827.03
2023-03-19T11:33:20.619Z,100822.84
2023-03-19T11:36:05.645Z,100811.50
2023-03-19T11:38:54.152Z,100822.41
2023-03-19T11:41:58.974Z,100826.59
2023-03-19T11:44:31.140Z,100825.75
2023-03-19T11:47:27.458Z,100815.06
2023-03-19T11:50:00.284Z,100821.94
2023-03-19T11:52:47.918Z,100816.88
2023-03-19T11:55:45.419Z,100808.91
2023-03-19T11:58:52.098Z,100815.22
2023-03-19T12:01:49.408Z,100799.53
2023-03-19T12:04:21.710Z,100807.75
2023-03-19T12:07:17.857Z,100813.56
2023-03-19T12:10:16.617Z,100804.59
2023-03-19T12:13:04.980Z,100808.38
2023-03-19T12:15:42.681Z,100798.91
2023-03-19T12:18:33.531Z,100776.72
2023-03-19T12:21:14.493Z,100803.47
2023-03-19T12:23:47.510Z,100801.13
2023-03-19T12:26:32.093Z,100798.59
2023-03-19T12:29:24.786Z,100798.97
2023-03-19T12:32:16.545Z,100794.94
2023-03-19T12:34:52.478Z,100798.50
2023-03-19T12:37:29.134Z,100799.53
2023-03-19T12:40:17.182Z,100797.63
2023-03-19T12:42:43.879Z,100796.13
2023-03-19T12:45:39.592Z,100800.78
2023-03-19T12:48:22.033Z,100786.72
2023-03-19T12:50:52.630Z,100786.88
2023-03-19T12:53:53.614Z,100789.00
2023-03-19T12:56:45.196Z,100768.94
2023-03-19T12:59:38.339Z,100790.28
2023-03-19T13:02:46.457Z,100791.16
2023-03-19T13:05:37.270Z,100796.13
2023-03-19T13:08:32.588Z,100790.69
2023-03-19T13:11:00.661Z,100802.84
2023-03-19T13:13:42.739Z,100797.38
2023-03-19T13:16:33.701Z,100801.16
2023-03-19T13:19:13.832Z,100791.50
2023-03-19T13:21:41.668Z,100796.06
2023-03-19T13:24:28.917Z,100796.88
2023-03-19T13:26:58.486Z,100793.31
2023-03-19T13:29:28.830Z,100799.84
2023-03-19T13:32:23.123Z,100791.19
2023-03-19T13:34:49.628Z,100791.44
2023-03-19T13:37:21.160Z,100793.53
2023-03-19T13:39:49.383Z,100799.91
2023-03-19T13:42:38.183Z,100768.75
2023-03-19T13:45:30.895Z,100789.69
2023-03-19T13:47:59.123Z,100787.88
2023-03-19T13:50:28.541Z,100791.03
2023-03-19T13:53:15.563Z,100788.69
2023-03-19T13:55:54.553Z,100785.28
2023-03-19T13:58:47.389Z,100789.44
2023-03-19T14:01:25.799Z,100793.41
2023-03-19T14:03:56.095Z,100794.50
2023-03-19T14:06:45.593Z,100793.03
2023-03-19T14:09:31.232Z,100795.81
2023-03-19T14:12:15.762Z,100797.34
2023-03-19T14:15:08.273Z,100797.41
2023-03-19T14:17:53.425Z,100790.53
2023-03-19T14:20:24.654Z,100794.31
2023-03-19T14:23:11.401Z,100794.34
2023-03-19T14:26:15.746Z,100799.16
2023-03-19T14:28:48.386Z,100790.16
2023-03-19T14:31:24.004Z,100789.31
2023-03-19T14:33:58.056Z,100793.53
2023-03-19T14:36:25.141Z,100791.81
2023-03-19T14:38:58.180Z,100788.25
2023-03-19T14:41:28.710Z,100787.22
2023-03-19T14:44:05.684Z,100793.13
2023-03-19T14:47:03.090Z,100787.03
2023-03-19T14:49:41.704Z,100793.75
2023-03-19T14:52:14.036Z,100799.38
2023-03-19T14:54:59.411Z,100807.31
2023-03-19T14:57:29.480Z,100798.13
2023-03-19T14:59:56.774Z,100804.41
2023-03-19T15:02:42.191Z,100812.38
2023-03-19T15:05:29.908Z,100819.91
2023-03-19T15:08:06.728Z,100813.63
2023-03-19T15:10:49.233Z,100812.13
2023-03-19T15:13:30.892Z,100813.19
2023-03-19T15:16:34.642Z,100815.28
2023-03-19T15:19:01.512Z,100808.41
2023-03-19T15:21:32.231Z,100812.34
2023-03-19T15:23:58.755Z,100818.41
2023-03-19T15:26:33.964Z,100820.06
2023-03-19T15:29:00.898Z,100820.69
2023-03-19T15:31:51.725Z,100820.72
2023-03-19T15:34:22.817Z,100818.00
2023-03-19T15:36:57.999Z,100819.03
2023-03-19T15:39:28.833Z,100821.97
2023-03-19T15:41:57.032Z,100824.47
2023-03-19T15:44:29.815Z,100829.69
2023-03-19T15:46:58.092Z,100824.88
2023-03-19T15:49:32.387Z,100835.72
2023-03-19T15:52:02.722Z,100833.63
2023-03-19T15:54:29.412Z,100841.78
2023-03-19T15:56:57.160Z,100844.50
2023-03-19T15:59:27.351Z,100853.06
2023-03-19T16:01:58.560Z,100849.91
2023-03-19T16:04:29.487Z,100859.13
2023-03-19T16:06:58.441Z,100863.94
2023-03-19T16:09:31.909Z,100864.16
2023-03-19T16:11:58.650Z,100870.44
2023-03-19T16:14:42.962Z,100875.47
2023-03-19T16:17:14.664Z,100876.28
2023-03-19T16:19:50.251Z,100880.03
2023-03-19T16:22:20.795Z,100885.44
2023-03-19T16:24:49.683Z,100890.06
2023-03-19T16:27:33.400Z,100907.16
2023-03-19T16:30:00.279Z,100905.78
2023-03-19T16:32:31.629Z,100913.63
2023-03-19T16:35:05.136Z,100888.88
2023-03-19T16:37:43.232Z,100908.16
2023-03-19T16:40:12.482Z,100908.59
2023-03-19T16:42:41.068Z,100917.41
2023-03-19T16:45:27.163Z,100911.97
2023-03-19T16:47:55.541Z,100908.38
2023-03-19T16:50:29.721Z,100898.47
2023-03-19T16:52:58.222Z,100891.28
2023-03-19T16:55:24.648Z,100914.28
2023-03-19T16:58:00.836Z,100923.88
2023-03-19T17:00:31.352Z,100920.97
2023-03-19T17:02:58.768Z,100911.47
2023-03-19T17:05:27.120Z,100927.22
2023-03-19T17:07:57.342Z,100930.59
2023-03-19T17:10:28.667Z,100918.38
2023-03-19T17:12:56.461Z,100925.06
2023-03-19T17:15:22.956Z,100927.06
2023-03-19T17:17:50.350Z,100926.69
2023-03-19T17:20:20.833Z,100926.22
2023-03-19T17:22:47.320Z,100930.38
2023-03-19T17:25:15.684Z,100938.84
2023-03-19T17:27:42.116Z,100947.38
2023-03-19T17:30:09.294Z,100949.00
2023-03-19T17:32:37.086Z,100963.28
2023-03-19T17:35:03.858Z,100967.66
2023-03-19T17:37:31.583Z,100968.38
2023-03-19T17:39:58.117Z,100965.19
2023-03-19T17:42:25.141Z,100981.09
2023-03-19T17:44:52.044Z,100975.44
2023-03-19T17:47:18.878Z,100985.50
2023-03-19T17:49:46.088Z,100983.94
2023-03-19T17:52:17.678Z,100996.03
2023-03-19T17:54:44.951Z,100988.53
2023-03-19T17:57:15.390Z,100990.84
2023-03-19T17:59:41.849Z,100998.38
2023-03-19T18:02:27.793Z,100997.69
2023-03-19T18:04:54.334Z,100995.91
2023-03-19T18:07:20.875Z,101006.09
2023-03-19T18:09:47.380Z,100999.84
2023-03-19T18:12:13.824Z,101016.13
2023-03-19T18:14:40.226Z,101009.84
2023-03-19T18:17:08.170Z,101013.22
2023-03-19T18:19:38.517Z,101015.94
2023-03-19T18:22:17.374Z,101020.69
2023-03-19T18:24:44.207Z,101023.06
2023-03-19T18:27:11.048Z,101017.59
2023-03-19T18:29:37.575Z,101016.66
2023-03-19T18:32:11.995Z,101022.53
2023-03-19T18:34:38.518Z,101029.75
2023-03-19T18:37:05.282Z,101032.03
2023-03-19T18:39:36.293Z,101030.50
2023-03-19T18:42:02.765Z,101000.59
2023-03-19T18:44:29.292Z,101036.41
2023-03-19T18:46:55.776Z,101037.03
2023-03-19T18:49:26.634Z,101045.84
2023-03-19T18:52:02.552Z,101048.75
2023-03-19T18:54:31.032Z,101051.00
2023-03-19T18:56:59.849Z,101043.69
2023-03-19T18:59:30.241Z,101051.00
2023-03-19T19:02:03.286Z,101055.19
2023-03-19T19:04:30.111Z,101051.19
2023-03-19T19:06:56.816Z,101051.38
2023-03-19T19:09:23.255Z,101060.81
2023-03-19T19:11:49.875Z,101056.88
2023-03-19T19:14:21.706Z,101059.59
2023-03-19T19:16:48.627Z,101057.97
2023-03-19T19:19:24.580Z,101063.78
2023-03-19T19:21:52.195Z,101065.00
2023-03-19T19:24:19.053Z,101071.47
2023-03-19T19:26:47.784Z,101066.28
2023-03-19T19:29:29.398Z,101064.63
2023-03-19T19:31:56.275Z,101069.50
2023-03-19T19:34:23.478Z,101079.13
2023-03-19T19:36:50.954Z,101081.91
2023-03-19T19:39:17.877Z,101071.81
2023-03-19T19:41:44.548Z,101096.22
2023-03-19T19:44:19.984Z,101094.72
2023-03-19T19:46:46.512Z,101097.69
2023-03-19T19:49:14.589Z,101108.09
2023-03-19T19:51:41.303Z,101108.84
2023-03-19T19:54:07.869Z,101117.34
2023-03-19T19:56:34.408Z,101117.72
2023-03-19T19:59:08.252Z,101120.16
2023-03-19T20:01:34.759Z,101087.50
2023-03-19T20:04:01.422Z,101118.34
2023-03-19T20:06:27.976Z,101132.28
2023-03-19T20:08:54.436Z,101117.97
2023-03-19T20:11:25.618Z,101129.00
2023-03-19T20:13:55.439Z,101132.38
2023-03-19T20:16:25.799Z,101124.22
2023-03-19T20:18:54.574Z,101126.38
2023-03-19T20:21:21.656Z,101133.53
2023-03-19T20:23:51.036Z,101142.97
2023-03-19T20:26:20.964Z,101144.81
2023-03-19T20:28:48.094Z,101155.09
2023-03-19T20:31:34.100Z,101151.53
2023-03-19T20:34:00.875Z,101163.78
2023-03-19T20:36:27.335Z,101163.41
2023-03-19T20:38:53.984Z,101165.75
2023-03-19T20:41:23.737Z,101166.44
2023-03-19T20:43:51.173Z,101177.47
2023-03-19T20:46:23.170Z,101175.56
2023-03-19T20:48:50.092Z,101169.38
2023-03-19T20:51:24.587Z,101174.25
2023-03-19T20:53:51.704Z,101175.94
2023-03-19T20:56:22.578Z,101177.16
2023-03-19T20:58:49.431Z,101181.72
2023-03-19T21:01:17.720Z,101188.84
2023-03-19T21:03:44.282Z,101189.84
2023-03-19T21:06:20.533Z,101189.22
2023-03-19T21:08:50.734Z,101197.44
2023-03-19T21:11:19.547Z,101202.69
2023-03-19T21:13:47.848Z,101203.91
2023-03-19T21:16:29.125Z,101197.63
2023-03-19T21:18:55.602Z,101206.59
2023-03-19T21:21:33.218Z,101208.00
2023-03-19T21:24:11.018Z,101213.88
2023-03-19T21:26:39.746Z,101207.16
2023-03-19T21:29:23.853Z,101216.97
2023-03-19T21:31:56.533Z,101211.25
2023-03-19T21:34:23.035Z,101205.91
2023-03-19T21:36:49.475Z,101220.78
2023-03-19T21:39:16.977Z,101215.06
2023-03-19T21:41:43.673Z,101222.84
2023-03-19T21:44:14.635Z,101207.56
2023-03-19T21:46:41.247Z,101225.81
2023-03-19T21:49:11.559Z,101220.44
2023-03-19T21:51:38.080Z,101223.69
2023-03-19T21:54:05.474Z,101230.91
2023-03-19T21:56:44.046Z,101195.41
2023-03-19T21:59:19.184Z,101227.91
2023-03-19T22:01:46.511Z,101233.53
2023-03-19T22:04:13.045Z,101225.22
2023-03-19T22:06:40.016Z,101223.31
2023-03-19T22:09:06.804Z,101225.50
2023-03-19T22:11:36.306Z,101232.94
2023-03-19T22:14:06.323Z,101242.47
2023-03-19T22:16:33.490Z,101241.81
2023-03-19T22:19:00.019Z,101248.66
2023-03-19T22:21:26.458Z,101241.06
2023-03-19T22:23:53.644Z,101233.03
2023-03-19T22:26:37.283Z,101251.09
2023-03-19T22:29:18.073Z,101255.88
2023-03-19T22:31:45.254Z,101274.16
2023-03-19T22:34:16.708Z,101266.53
2023-03-19T22:36:43.405Z,101260.78
2023-03-19T22:39:09.877Z,101269.13
2023-03-19T22:41:39.238Z,101269.47
2023-03-19T22:44:08.823Z,101268.78
2023-03-19T22:46:35.726Z,101272.00
2023-03-19T22:49:05.746Z,101272.53
2023-03-19T22:51:32.267Z,101272.66
2023-03-19T22:53:58.719Z,101274.19
2023-03-19T22:56:25.188Z,101273.53
2023-03-19T22:58:52.579Z,101271.50
2023-03-19T23:01:29.404Z,101280.63
2023-03-19T23:03:56.766Z,101279.66
2023-03-19T23:06:30.589Z,101273.41
2023-03-19T23:08:57.948Z,101280.84
2023-03-19T23:11:24.569Z,101274.56
2023-03-19T23:13:51.433Z,101281.53
2023-03-19T23:16:23.401Z,101278.81
2023-03-19T23:18:50.681Z,101280.16
2023-03-19T23:21:21.251Z,101268.16
2023-03-19T23:23:47.752Z,101274.25
2023-03-19T23:26:27.471Z,101289.81
2023-03-19T23:28:56.384Z,101295.59
2023-03-19T23:31:23.066Z,101295.09
2023-03-19T23:33:49.509Z,101292.56
2023-03-19T23:36:17.101Z,101295.25
2023-03-19T23:38:43.710Z,101307.09
2023-03-19T23:41:22.285Z,101306.25
2023-03-19T23:43:48.766Z,101302.38
2023-03-19T23:46:15.894Z,101307.78
2023-03-19T23:48:42.733Z,101310.84
2023-03-19T23:51:16.167Z,101304.41
2023-03-19T23:53:43.221Z,101313.53
2023-03-19T23:56:22.845Z,101297.31
2023-03-19T23:58:51.273Z,101315.56
